createdAt,value
2017-07-27T00:01:34.539Z,94.40
2017-07-27T00:04:01.996Z,94.30
2017-07-27T00:06:29.423Z,94.60
2017-07-27T00:08:56.865Z,94.70
2017-07-27T00:11:24.388Z,94.30
2017-07-27T00:13:52.593Z,93.90
2017-07-27T00:16:20.030Z,93.80
2017-07-27T00:18:48.215Z,93.70
2017-07-27T00:21:15.669Z,93.70
2017-07-27T00:23:43.852Z,93.70
2017-07-27T00:26:11.280Z,93.70
2017-07-27T00:28:39.473Z,94.10
2017-07-27T00:31:06.928Z,94.10
2017-07-27T00:33:34.464Z,93.90
2017-07-27T00:36:02.718Z,94.00
2017-07-27T00:38:30.122Z,93.70
2017-07-27T00:40:57.552Z,93.50
2017-07-27T00:43:25.749Z,93.30
2017-07-27T00:45:53.176Z,93.30
2017-07-27T00:48:20.601Z,93.60
2017-07-27T00:50:48.024Z,93.50
2017-07-27T00:53:15.460Z,93.70
2017-07-27T00:55:42.893Z,93.60
2017-07-27T00:58:10.324Z,93.60
2017-07-27T01:00:37.745Z,93.40
2017-07-27T01:03:05.191Z,93.50
2017-07-27T01:05:33.426Z,93.40
2017-07-27T01:08:00.852Z,93.40
2017-07-27T01:10:28.280Z,93.50
2017-07-27T01:12:55.713Z,93.30
2017-07-27T01:15:23.913Z,94.00
2017-07-27T01:17:51.345Z,93.60
2017-07-27T01:20:19.552Z,93.40
2017-07-27T01:22:46.976Z,93.40
2017-07-27T01:25:15.164Z,92.90
2017-07-27T01:27:42.588Z,92.80
2017-07-27T01:30:10.020Z,92.80
2017-07-27T01:32:37.455Z,92.90
2017-07-27T01:35:04.871Z,92.90
2017-07-27T01:37:33.100Z,92.70
2017-07-27T01:40:00.524Z,92.60
2017-07-27T01:42:27.949Z,92.60
2017-07-27T01:44:56.159Z,93.00
2017-07-27T01:47:23.687Z,93.00
2017-07-27T01:49:51.914Z,93.30
2017-07-27T01:52:19.368Z,93.20
2017-07-27T01:54:46.837Z,93.20
2017-07-27T01:57:14.257Z,93.40
2017-07-27T01:59:41.691Z,93.50
2017-07-27T02:02:09.128Z,93.60
2017-07-27T02:04:37.320Z,93.30
2017-07-27T02:07:04.760Z,93.30
2017-07-27T02:09:32.960Z,93.30
2017-07-27T02:12:00.385Z,93.30
2017-07-27T02:14:27.809Z,93.30
2017-07-27T02:16:55.234Z,93.30
2017-07-27T02:19:22.673Z,93.10
2017-07-27T02:21:50.865Z,93.10
2017-07-27T02:24:18.290Z,93.10
2017-07-27T02:26:46.485Z,93.30
2017-07-27T02:29:13.917Z,93.00
2017-07-27T02:31:42.104Z,93.20
2017-07-27T02:34:10.303Z,93.10
2017-07-27T02:36:37.804Z,93.10
2017-07-27T02:39:05.248Z,92.90
2017-07-27T02:41:32.751Z,92.90
2017-07-27T02:44:00.992Z,93.20
2017-07-27T02:46:28.426Z,93.10
2017-07-27T02:48:56.064Z,93.30
2017-07-27T02:51:23.573Z,93.40
2017-07-27T02:53:51.064Z,93.20
2017-07-27T02:56:18.606Z,93.20
2017-07-27T02:58:46.115Z,93.10
2017-07-27T03:01:13.702Z,92.90
2017-07-27T03:03:41.229Z,92.90
2017-07-27T03:06:08.735Z,92.90
2017-07-27T03:08:36.942Z,92.60
2017-07-27T03:11:04.501Z,92.60
2017-07-27T03:13:31.934Z,92.60
2017-07-27T03:15:59.369Z,92.60
2017-07-27T03:18:26.880Z,92.40
2017-07-27T03:20:55.134Z,92.10
2017-07-27T03:23:22.549Z,92.10
2017-07-27T03:25:49.994Z,91.80
2017-07-27T03:28:17.428Z,91.80
2017-07-27T03:30:45.643Z,91.80
2017-07-27T03:33:13.068Z,91.80
2017-07-27T03:35:40.501Z,91.80
2017-07-27T03:38:08.772Z,91.70
2017-07-27T03:40:36.963Z,91.80
2017-07-27T03:43:04.453Z,91.80
2017-07-27T03:45:31.875Z,91.70
2017-07-27T03:47:59.318Z,91.80
2017-07-27T03:50:27.513Z,92.10
2017-07-27T03:52:54.934Z,92.00
2017-07-27T03:55:22.403Z,92.50
2017-07-27T03:57:50.602Z,92.90
2017-07-27T04:00:18.021Z,92.80
2017-07-27T04:02:45.444Z,92.90
2017-07-27T04:05:12.883Z,93.10
2017-07-27T04:07:40.315Z,92.90
2017-07-27T04:10:07.747Z,93.20
2017-07-27T04:12:35.947Z,93.20
2017-07-27T04:15:03.368Z,93.20
2017-07-27T04:17:30.797Z,93.30
2017-07-27T04:19:58.223Z,93.40
2017-07-27T04:22:25.720Z,93.60
2017-07-27T04:24:53.134Z,93.40
2017-07-27T04:27:20.559Z,93.30
2017-07-27T04:29:48.790Z,93.60
2017-07-27T04:32:16.207Z,93.70
2017-07-27T04:34:43.628Z,94.00
2017-07-27T04:37:11.061Z,93.70
2017-07-27T04:39:38.512Z,93.80
2017-07-27T04:42:06.097Z,94.00
2017-07-27T04:44:33.552Z,94.40
2017-07-27T04:47:00.989Z,94.40
2017-07-27T04:49:28.427Z,94.40
2017-07-27T04:51:55.853Z,94.40
2017-07-27T04:54:23.276Z,94.30
2017-07-27T04:57:02.561Z,94.10
2017-07-27T04:59:30.000Z,93.90
2017-07-27T05:01:57.421Z,94.10
2017-07-27T05:04:24.960Z,94.30
2017-07-27T05:06:52.434Z,94.40
2017-07-27T05:09:19.853Z,94.50
2017-07-27T05:11:47.332Z,94.50
2017-07-27T05:14:14.756Z,94.40
2017-07-27T05:16:42.180Z,94.30
2017-07-27T05:19:10.408Z,94.30
2017-07-27T05:21:37.849Z,94.30
2017-07-27T05:24:05.273Z,94.30
2017-07-27T05:26:32.704Z,94.10
2017-07-27T05:29:00.128Z,94.00
2017-07-27T05:31:27.548Z,93.90
2017-07-27T05:33:54.990Z,94.10
2017-07-27T05:36:23.181Z,94.40
2017-07-27T05:38:50.612Z,94.40
2017-07-27T05:41:18.809Z,95.00
2017-07-27T05:43:46.263Z,95.00
2017-07-27T05:46:13.683Z,95.00
2017-07-27T05:48:41.129Z,95.30
2017-07-27T05:51:08.556Z,95.20
2017-07-27T05:53:35.993Z,94.70
2017-07-27T05:56:03.422Z,94.90
2017-07-27T05:58:31.643Z,94.80
2017-07-27T06:00:59.144Z,95.00
2017-07-27T06:03:26.592Z,94.80
2017-07-27T06:05:54.014Z,94.60
2017-07-27T06:08:21.490Z,94.70
2017-07-27T06:13:22.841Z,94.60
2017-07-27T06:15:50.256Z,94.90
2017-07-27T06:18:17.687Z,94.70
2017-07-27T06:20:45.877Z,94.40
2017-07-27T06:23:14.098Z,94.30
2017-07-27T06:25:41.526Z,94.30
2017-07-27T06:28:08.968Z,94.30
2017-07-27T06:30:36.388Z,94.40
2017-07-27T06:33:03.836Z,94.50
2017-07-27T06:35:31.271Z,94.50
2017-07-27T06:37:58.692Z,94.40
2017-07-27T06:40:26.116Z,94.40
2017-07-27T06:42:53.572Z,94.20
2017-07-27T06:45:21.015Z,94.20
2017-07-27T06:47:48.442Z,94.00
2017-07-27T06:50:15.862Z,93.90
2017-07-27T06:52:44.072Z,93.40
2017-07-27T06:55:11.493Z,93.30
2017-07-27T06:57:39.688Z,93.20
2017-07-27T07:00:07.120Z,93.20
2017-07-27T07:02:35.323Z,93.00
2017-07-27T07:05:02.753Z,93.00
2017-07-27T07:07:30.176Z,92.90
2017-07-27T07:09:57.619Z,93.00
2017-07-27T07:12:25.040Z,93.00
2017-07-27T07:14:52.472Z,92.70
2017-07-27T07:17:20.660Z,92.50
2017-07-27T07:19:48.077Z,92.10
2017-07-27T07:22:15.501Z,91.80
2017-07-27T07:24:42.931Z,91.80
2017-07-27T07:27:10.348Z,91.50
2017-07-27T07:29:38.536Z,91.80
2017-07-27T07:32:06.797Z,91.90
2017-07-27T07:34:35.001Z,91.70
2017-07-27T07:37:03.201Z,91.90
2017-07-27T07:39:30.687Z,91.80
2017-07-27T07:41:58.145Z,92.40
2017-07-27T07:44:25.586Z,92.60
2017-07-27T07:46:52.993Z,92.50
2017-07-27T07:49:20.422Z,92.50
2017-07-27T07:51:47.836Z,92.70
2017-07-27T07:54:15.600Z,92.10
2017-07-27T07:56:43.133Z,92.00
2017-07-27T07:59:10.568Z,91.60
2017-07-27T08:01:38.756Z,90.30
2017-07-27T08:04:06.188Z,90.30
2017-07-27T08:06:34.380Z,89.80
2017-07-27T08:09:13.658Z,89.80
2017-07-27T08:11:41.080Z,89.20
2017-07-27T08:14:08.509Z,89.50
2017-07-27T08:16:36.731Z,88.80
2017-07-27T08:19:04.165Z,88.70
2017-07-27T08:21:31.582Z,88.50
2017-07-27T08:23:59.020Z,88.40
2017-07-27T08:26:26.486Z,88.10
2017-07-27T08:28:53.889Z,87.50
2017-07-27T08:31:21.312Z,87.70
2017-07-27T08:33:48.740Z,88.00
2017-07-27T08:36:16.939Z,87.40
2017-07-27T08:38:45.141Z,87.00
2017-07-27T08:41:12.561Z,87.00
2017-07-27T08:43:39.992Z,87.40
2017-07-27T08:46:07.422Z,86.20
2017-07-27T08:48:34.859Z,86.30
2017-07-27T08:51:02.314Z,85.50
2017-07-27T08:53:30.505Z,85.20
2017-07-27T08:55:57.924Z,84.80
2017-07-27T08:58:25.351Z,83.90
2017-07-27T09:00:53.545Z,83.30
2017-07-27T09:03:20.962Z,82.50
2017-07-27T09:05:48.399Z,81.20
2017-07-27T09:08:15.821Z,80.50
2017-07-27T09:10:43.274Z,79.40
2017-07-27T09:13:11.439Z,77.50
2017-07-27T09:15:38.909Z,77.40
2017-07-27T09:18:06.341Z,77.60
2017-07-27T09:20:34.550Z,73.60
2017-07-27T09:23:01.983Z,73.40
2017-07-27T09:25:30.174Z,73.80
2017-07-27T09:27:57.600Z,73.70
2017-07-27T09:30:25.782Z,72.50
2017-07-27T09:32:53.986Z,72.50
2017-07-27T09:35:21.405Z,72.50
2017-07-27T09:37:49.579Z,70.60
2017-07-27T09:40:17.013Z,70.60
2017-07-27T09:42:44.528Z,70.40
2017-07-27T09:45:11.948Z,71.00
2017-07-27T09:47:39.408Z,68.70
2017-07-27T09:50:07.621Z,67.80
2017-07-27T09:52:35.049Z,67.70
2017-07-27T09:55:02.515Z,67.20
2017-07-27T09:57:50.616Z,68.00
2017-07-27T10:00:18.818Z,68.10
2017-07-27T10:02:46.230Z,67.10
2017-07-27T10:05:13.648Z,67.30
2017-07-27T10:07:41.065Z,66.00
2017-07-27T10:10:09.269Z,63.80
2017-07-27T10:12:36.709Z,63.60
2017-07-27T10:15:04.137Z,63.80
2017-07-27T10:17:32.329Z,63.20
2017-07-27T10:19:59.761Z,63.20
2017-07-27T10:22:27.204Z,63.60
2017-07-27T10:24:54.656Z,62.90
2017-07-27T10:27:22.120Z,63.20
2017-07-27T10:29:49.547Z,63.20
2017-07-27T10:32:16.992Z,61.60
2017-07-27T10:34:44.441Z,60.80
2017-07-27T10:37:11.853Z,61.60
2017-07-27T10:39:39.284Z,62.20
2017-07-27T10:42:06.721Z,61.60
2017-07-27T10:44:34.133Z,59.80
2017-07-27T10:47:02.344Z,60.50
2017-07-27T10:49:29.773Z,60.40
2017-07-27T10:51:57.197Z,60.40
2017-07-27T10:54:24.610Z,60.40
2017-07-27T10:56:52.020Z,60.10
2017-07-27T10:59:20.257Z,59.90
2017-07-27T11:01:47.658Z,60.50
2017-07-27T11:04:15.880Z,59.00
2017-07-27T11:06:43.308Z,59.00
2017-07-27T11:09:10.743Z,58.50
2017-07-27T11:11:38.925Z,58.40
2017-07-27T11:14:06.366Z,58.40
2017-07-27T11:16:33.820Z,57.90
2017-07-27T11:19:01.335Z,58.70
2017-07-27T11:21:28.749Z,57.80
2017-07-27T11:23:56.200Z,57.30
2017-07-27T11:26:24.532Z,57.10
2017-07-27T11:28:52.003Z,57.00
2017-07-27T11:31:19.412Z,56.60
2017-07-27T11:33:47.606Z,55.00
2017-07-27T11:36:15.108Z,54.60
2017-07-27T11:38:42.528Z,52.70
2017-07-27T11:41:09.935Z,51.90
2017-07-27T11:43:37.372Z,51.90
2017-07-27T11:46:04.781Z,51.30
2017-07-27T11:48:32.983Z,50.70
2017-07-27T11:51:00.434Z,50.70
2017-07-27T11:53:27.859Z,50.70
2017-07-27T11:55:56.062Z,50.00
2017-07-27T11:58:23.480Z,50.00
2017-07-27T12:00:51.720Z,51.10
2017-07-27T12:03:19.141Z,51.10
2017-07-27T12:05:46.585Z,51.10
2017-07-27T12:08:14.773Z,51.10
2017-07-27T12:10:42.189Z,51.10
2017-07-27T12:13:09.611Z,51.00
2017-07-27T12:15:37.041Z,50.00
2017-07-27T12:18:04.484Z,50.40
2017-07-27T12:20:31.898Z,50.30
2017-07-27T12:22:59.315Z,50.90
2017-07-27T12:25:26.733Z,50.00
2017-07-27T12:27:54.923Z,47.80
2017-07-27T12:30:22.351Z,47.80
2017-07-27T12:32:49.763Z,47.10
2017-07-27T12:35:17.192Z,47.30
2017-07-27T12:37:45.408Z,47.00
2017-07-27T12:40:12.832Z,46.90
2017-07-27T12:42:40.309Z,44.00
2017-07-27T12:45:07.760Z,42.60
2017-07-27T12:47:35.196Z,42.70
2017-07-27T12:50:02.616Z,43.90
2017-07-27T12:52:30.058Z,44.90
2017-07-27T12:54:57.469Z,45.80
2017-07-27T12:57:24.893Z,46.20
2017-07-27T12:59:53.112Z,46.10
2017-07-27T13:02:20.531Z,46.10
2017-07-27T13:04:47.956Z,46.90
2017-07-27T13:07:15.413Z,46.80
2017-07-27T13:09:42.839Z,47.00
2017-07-27T13:12:10.616Z,46.70
2017-07-27T13:14:38.044Z,47.50
2017-07-27T13:17:05.475Z,48.40
2017-07-27T13:19:32.929Z,47.90
2017-07-27T13:22:01.166Z,48.60
2017-07-27T13:24:28.579Z,48.40
2017-07-27T13:26:55.991Z,48.50
2017-07-27T13:29:23.421Z,48.20
2017-07-27T13:31:50.868Z,48.00
2017-07-27T13:34:18.351Z,47.00
2017-07-27T13:36:45.787Z,46.60
2017-07-27T13:39:13.199Z,45.00
2017-07-27T13:41:40.641Z,44.80
2017-07-27T13:44:08.865Z,45.50
2017-07-27T13:46:36.281Z,44.80
2017-07-27T13:49:03.708Z,45.40
2017-07-27T13:51:31.130Z,45.70
2017-07-27T13:53:58.597Z,45.80
2017-07-27T13:56:26.018Z,45.70
2017-07-27T13:58:53.474Z,45.50
2017-07-27T14:01:20.880Z,45.20
2017-07-27T14:03:48.308Z,44.60
2017-07-27T14:06:15.747Z,44.70
2017-07-27T14:08:43.188Z,45.00
2017-07-27T14:11:10.668Z,45.60
2017-07-27T14:13:38.141Z,45.80
2017-07-27T14:16:05.561Z,45.90
2017-07-27T14:18:32.977Z,45.60
2017-07-27T14:21:00.420Z,45.40
2017-07-27T14:23:27.851Z,45.60
2017-07-27T14:25:55.261Z,45.70
2017-07-27T14:28:23.492Z,45.40
2017-07-27T14:30:50.892Z,45.30
2017-07-27T14:33:19.084Z,45.60
2017-07-27T14:35:46.500Z,45.60
2017-07-27T14:38:13.924Z,45.90
2017-07-27T14:40:41.350Z,46.10
2017-07-27T14:43:08.765Z,45.80
2017-07-27T14:45:36.201Z,46.10
2017-07-27T14:48:03.638Z,46.80
2017-07-27T14:50:31.059Z,47.60
2017-07-27T14:52:58.476Z,47.70
2017-07-27T14:55:25.901Z,48.60
2017-07-27T14:57:53.367Z,49.50
2017-07-27T15:00:20.770Z,50.70
2017-07-27T15:02:48.218Z,52.20
2017-07-27T15:05:15.636Z,53.40
2017-07-27T15:07:43.062Z,54.20
2017-07-27T15:10:10.477Z,54.90
2017-07-27T15:12:37.905Z,55.30
2017-07-27T15:15:05.322Z,55.60
2017-07-27T15:17:32.767Z,56.00
2017-07-27T15:20:00.966Z,56.70
2017-07-27T15:22:28.378Z,56.60
2017-07-27T15:24:55.808Z,56.00
2017-07-27T15:27:24.025Z,56.20
2017-07-27T15:29:51.489Z,56.10
2017-07-27T15:32:18.948Z,56.30
2017-07-27T15:34:46.369Z,56.80
2017-07-27T15:37:13.801Z,56.80
2017-07-27T15:39:41.984Z,57.60
2017-07-27T15:42:09.413Z,57.50
2017-07-27T15:44:36.829Z,57.90
2017-07-27T15:47:04.260Z,58.10
2017-07-27T15:49:31.711Z,58.30
2017-07-27T15:51:59.908Z,58.70
2017-07-27T15:54:27.335Z,58.70
2017-07-27T15:56:54.754Z,58.90
2017-07-27T15:59:22.177Z,59.00
2017-07-27T16:01:49.617Z,59.20
2017-07-27T16:04:17.044Z,59.90
2017-07-27T16:06:45.245Z,60.40
2017-07-27T16:09:12.671Z,60.40
2017-07-27T16:11:40.867Z,61.00
2017-07-27T16:14:08.288Z,60.90
2017-07-27T16:16:35.708Z,61.00
2017-07-27T16:19:03.167Z,60.00
2017-07-27T16:21:30.612Z,59.00
2017-07-27T16:23:58.039Z,58.00
2017-07-27T16:26:25.464Z,58.00
2017-07-27T16:28:52.888Z,58.20
2017-07-27T16:31:20.314Z,58.10
2017-07-27T16:33:47.764Z,58.50
2017-07-27T16:36:15.177Z,58.30
2017-07-27T16:38:42.616Z,58.10
2017-07-27T16:41:10.043Z,58.20
2017-07-27T16:43:37.484Z,58.60
2017-07-27T16:46:04.912Z,59.20
2017-07-27T16:48:32.345Z,58.90
2017-07-27T16:50:59.793Z,58.90
2017-07-27T16:53:27.228Z,59.10
2017-07-27T16:55:54.654Z,58.60
2017-07-27T16:58:22.873Z,58.50
2017-07-27T17:00:50.284Z,58.50
2017-07-27T17:03:18.478Z,58.80
2017-07-27T17:05:45.909Z,58.80
2017-07-27T17:08:14.092Z,58.10
2017-07-27T17:10:41.531Z,58.10
2017-07-27T17:13:08.948Z,57.70
2017-07-27T17:15:36.392Z,57.70
2017-07-27T17:18:03.813Z,57.20
2017-07-27T17:20:31.240Z,57.40
2017-07-27T17:22:58.665Z,58.00
2017-07-27T17:25:26.085Z,57.70
2017-07-27T17:27:53.526Z,58.00
2017-07-27T17:30:21.740Z,58.90
2017-07-27T17:32:49.155Z,58.90
2017-07-27T17:35:17.375Z,59.80
2017-07-27T17:37:44.794Z,59.80
2017-07-27T17:40:12.981Z,59.30
2017-07-27T17:42:40.429Z,59.30
2017-07-27T17:45:07.852Z,60.00
2017-07-27T17:47:35.272Z,59.90
2017-07-27T17:50:02.705Z,59.60
2017-07-27T17:52:30.135Z,59.10
2017-07-27T17:54:58.324Z,58.40
2017-07-27T17:57:25.756Z,58.30
2017-07-27T17:59:53.175Z,58.30
2017-07-27T18:02:20.621Z,58.20
2017-07-27T18:04:48.049Z,58.00
2017-07-27T18:07:15.466Z,58.10
2017-07-27T18:09:42.909Z,57.90
2017-07-27T18:12:10.341Z,57.80
2017-07-27T18:14:37.777Z,58.20
2017-07-27T18:17:05.205Z,58.10
2017-07-27T18:19:32.646Z,58.10
2017-07-27T18:22:00.068Z,57.60
2017-07-27T18:24:27.489Z,58.30
2017-07-27T18:26:54.914Z,58.40
2017-07-27T18:29:22.336Z,58.60
2017-07-27T18:31:49.766Z,58.80
2017-07-27T18:34:17.181Z,59.00
2017-07-27T18:36:44.605Z,59.20
2017-07-27T18:39:12.029Z,59.20
2017-07-27T18:41:39.458Z,59.40
2017-07-27T18:44:07.637Z,60.10
2017-07-27T18:46:35.860Z,59.90
2017-07-27T18:49:03.285Z,59.90
2017-07-27T18:51:30.724Z,60.20
2017-07-27T18:53:58.919Z,60.20
2017-07-27T18:56:26.342Z,60.20
2017-07-27T18:58:53.913Z,60.60
2017-07-27T19:01:22.098Z,60.90
2017-07-27T19:03:49.529Z,60.90
2017-07-27T19:06:17.715Z,61.70
2017-07-27T19:08:45.989Z,61.90
2017-07-27T19:11:14.185Z,62.40
2017-07-27T19:13:41.608Z,62.30
2017-07-27T19:18:44.541Z,63.40
2017-07-27T19:21:11.976Z,63.40
2017-07-27T19:23:40.170Z,64.30
2017-07-27T19:26:07.616Z,64.30
2017-07-27T19:28:35.041Z,64.80
2017-07-27T19:31:02.495Z,65.10
2017-07-27T19:33:29.948Z,65.10
2017-07-27T19:35:57.364Z,65.40
2017-07-27T19:38:24.801Z,65.70
2017-07-27T19:40:52.237Z,65.70
2017-07-27T19:43:20.428Z,66.30
2017-07-27T19:45:47.856Z,66.30
2017-07-27T19:48:15.289Z,66.50
2017-07-27T19:50:42.724Z,66.60
2017-07-27T19:53:10.194Z,67.00
2017-07-27T19:55:37.600Z,67.10
2017-07-27T19:58:05.045Z,67.50
2017-07-27T20:00:33.320Z,67.50
2017-07-27T20:03:00.739Z,67.50
2017-07-27T20:05:28.161Z,67.60
2017-07-27T20:07:55.600Z,68.30
2017-07-27T20:10:23.043Z,67.60
2017-07-27T20:12:50.471Z,67.80
2017-07-27T20:15:17.897Z,68.00
2017-07-27T20:17:45.334Z,68.10
2017-07-27T20:20:12.756Z,68.30
2017-07-27T20:22:40.965Z,68.90
2017-07-27T20:25:08.458Z,68.50
2017-07-27T20:27:35.886Z,69.00
2017-07-27T20:30:03.304Z,69.20
2017-07-27T20:32:30.735Z,69.30
2017-07-27T20:34:58.152Z,68.70
2017-07-27T20:37:25.585Z,69.00
2017-07-27T20:39:53.775Z,69.20
2017-07-27T20:42:21.226Z,69.20
2017-07-27T20:44:48.649Z,69.00
2017-07-27T20:47:16.082Z,69.20
2017-07-27T20:49:43.508Z,69.20
2017-07-27T20:52:10.931Z,69.30
2017-07-27T20:54:39.148Z,69.40
2017-07-27T20:57:06.566Z,69.30
2017-07-27T20:59:34.761Z,69.60
2017-07-27T21:02:02.205Z,69.60
2017-07-27T21:04:30.410Z,70.10
2017-07-27T21:06:57.862Z,70.10
2017-07-27T21:09:25.316Z,69.60
2017-07-27T21:11:52.791Z,69.40
2017-07-27T21:14:20.249Z,69.40
2017-07-27T21:16:47.695Z,69.50
2017-07-27T21:19:15.133Z,69.40
2017-07-27T21:21:42.577Z,69.10
2017-07-27T21:24:11.185Z,69.20
2017-07-27T21:26:38.851Z,69.10
2017-07-27T21:29:06.419Z,69.40
2017-07-27T21:31:33.972Z,69.20
2017-07-27T21:34:01.463Z,68.90
2017-07-27T21:36:29.005Z,68.70
2017-07-27T21:38:56.555Z,68.80
2017-07-27T21:41:24.131Z,68.70
2017-07-27T21:43:52.358Z,69.10
2017-07-27T21:46:19.880Z,69.10
2017-07-27T21:48:48.164Z,69.60
2017-07-27T21:51:15.644Z,69.50
2017-07-27T21:53:43.190Z,69.20
2017-07-27T21:56:10.712Z,68.80
2017-07-27T21:58:38.972Z,68.30
2017-07-27T22:01:07.238Z,67.90
2017-07-27T22:03:34.762Z,67.80
2017-07-27T22:06:02.184Z,68.60
2017-07-27T22:08:29.670Z,68.30
2017-07-27T22:10:57.182Z,68.10
2017-07-27T22:13:24.700Z,68.30
2017-07-27T22:15:52.284Z,68.40
2017-07-27T22:18:19.692Z,68.60
2017-07-27T22:20:47.138Z,68.10
2017-07-27T22:23:14.641Z,68.60
2017-07-27T22:25:42.983Z,69.30
2017-07-27T22:28:10.395Z,69.30
2017-07-27T22:30:38.577Z,69.20
2017-07-27T22:33:06.831Z,69.20
2017-07-27T22:35:34.257Z,69.20
2017-07-27T22:38:01.691Z,69.40
2017-07-27T22:40:29.120Z,69.50
2017-07-27T22:42:56.549Z,69.50
2017-07-27T22:45:23.977Z,69.30
2017-07-27T22:47:51.405Z,69.40
2017-07-27T22:50:18.828Z,69.30
2017-07-27T22:52:47.164Z,68.90
2017-07-27T22:55:15.588Z,69.00
2017-07-27T22:57:43.822Z,69.00
2017-07-27T23:00:12.026Z,68.70
2017-07-27T23:02:39.459Z,68.70
2017-07-27T23:05:06.900Z,68.40
2017-07-27T23:07:35.096Z,68.90
2017-07-27T23:10:02.521Z,68.70
2017-07-27T23:12:29.965Z,69.20
2017-07-27T23:14:57.396Z,69.00
2017-07-27T23:17:24.826Z,69.00
2017-07-27T23:19:52.245Z,68.70
2017-07-27T23:22:20.428Z,68.90
2017-07-27T23:24:48.628Z,68.80
2017-07-27T23:27:16.058Z,68.80
2017-07-27T23:29:44.232Z,69.10
2017-07-27T23:32:11.664Z,69.00
2017-07-27T23:34:39.096Z,69.20
2017-07-27T23:37:06.556Z,69.10
2017-07-27T23:39:33.988Z,69.30
2017-07-27T23:42:01.408Z,69.50
2017-07-27T23:44:29.625Z,69.70
2017-07-27T23:46:57.043Z,69.50
2017-07-27T23:49:24.473Z,69.40
2017-07-27T23:51:51.898Z,69.30
2017-07-27T23:54:19.325Z,69.30
2017-07-27T23:56:46.743Z,69.50
2017-07-27T23:59:14.941Z,70.00
